sensor_id;sensor_type;location;lat;lon;timestamp;P1;durP1;ratioP1;P2;durP2;ratioP2
15110;SDS011;7656;51.954;7.998;2022-12-19T00:02:28;22.30;;;10.27;;
15110;SDS011;7656;51.954;7.998;2022-12-19T00:06:49;2.23;;;1.90;;
15110;SDS011;7656;51.954;7.998;2022-12-19T00:11:11;22.47;;;11.33;;
15110;SDS011;7656;51.954;7.998;2022-12-19T00:15:34;18.90;;;9.00;;
15110;SDS011;7656;51.954;7.998;2022-12-19T00:19:56;25.87;;;12.63;;
15110;SDS011;7656;51.954;7.998;2022-12-19T00:24:17;16.80;;;10.23;;
15110;SDS011;7656;51.954;7.998;2022-12-19T00:28:39;10.10;;;5.63;;
15110;SDS011;7656;51.954;7.998;2022-12-19T00:33:02;22.33;;;11.93;;
15110;SDS011;7656;51.954;7.998;2022-12-19T00:37:23;18.10;;;9.97;;
15110;SDS011;7656;51.954;7.998;2022-12-19T00:41:44;21.83;;;11.03;;
15110;SDS011;7656;51.954;7.998;2022-12-19T00:46:07;7.53;;;4.60;;
15110;SDS011;7656;51.954;7.998;2022-12-19T00:50:30;19.87;;;11.63;;
15110;SDS011;7656;51.954;7.998;2022-12-19T00:54:51;22.27;;;12.07;;
15110;SDS011;7656;51.954;7.998;2022-12-19T00:59:13;8.83;;;5.17;;
15110;SDS011;7656;51.954;7.998;2022-12-19T01:03:34;17.07;;;8.87;;
15110;SDS011;7656;51.954;7.998;2022-12-19T01:07:55;16.33;;;8.83;;
15110;SDS011;7656;51.954;7.998;2022-12-19T01:12:17;22.23;;;10.50;;
15110;SDS011;7656;51.954;7.998;2022-12-19T01:16:56;17.00;;;9.67;;
15110;SDS011;7656;51.954;7.998;2022-12-19T01:21:18;21.20;;;9.57;;
15110;SDS011;7656;51.954;7.998;2022-12-19T01:25:39;21.23;;;11.33;;
15110;SDS011;7656;51.954;7.998;2022-12-19T01:30:05;22.70;;;10.60;;
15110;SDS011;7656;51.954;7.998;2022-12-19T01:34:27;23.83;;;11.63;;
15110;SDS011;7656;51.954;7.998;2022-12-19T01:38:48;19.63;;;9.70;;
15110;SDS011;7656;51.954;7.998;2022-12-19T01:43:11;19.93;;;11.13;;
15110;SDS011;7656;51.954;7.998;2022-12-19T01:47:37;21.67;;;9.10;;
15110;SDS011;7656;51.954;7.998;2022-12-19T01:52:08;18.80;;;10.47;;
15110;SDS011;7656;51.954;7.998;2022-12-19T01:56:31;19.83;;;9.87;;
15110;SDS011;7656;51.954;7.998;2022-12-19T02:00:55;19.97;;;9.73;;
15110;SDS011;7656;51.954;7.998;2022-12-19T02:05:17;16.60;;;8.77;;
15110;SDS011;7656;51.954;7.998;2022-12-19T02:09:38;15.43;;;7.90;;
15110;SDS011;7656;51.954;7.998;2022-12-19T02:13:59;20.93;;;9.70;;
15110;SDS011;7656;51.954;7.998;2022-12-19T02:32:41;17.90;;;9.37;;
15110;SDS011;7656;51.954;7.998;2022-12-19T02:37:35;17.10;;;9.77;;
15110;SDS011;7656;51.954;7.998;2022-12-19T02:42:05;8.20;;;5.00;;
15110;SDS011;7656;51.954;7.998;2022-12-19T02:46:29;13.90;;;7.50;;
15110;SDS011;7656;51.954;7.998;2022-12-19T02:50:50;15.97;;;9.27;;
15110;SDS011;7656;51.954;7.998;2022-12-19T02:55:13;15.70;;;8.93;;
15110;SDS011;7656;51.954;7.998;2022-12-19T02:59:50;14.43;;;7.57;;
15110;SDS011;7656;51.954;7.998;2022-12-19T03:09:14;17.70;;;9.27;;
15110;SDS011;7656;51.954;7.998;2022-12-19T03:14:07;15.30;;;7.67;;
15110;SDS011;7656;51.954;7.998;2022-12-19T03:18:33;16.97;;;9.20;;
15110;SDS011;7656;51.954;7.998;2022-12-19T03:22:55;10.50;;;6.63;;
15110;SDS011;7656;51.954;7.998;2022-12-19T03:27:21;24.33;;;8.20;;
15110;SDS011;7656;51.954;7.998;2022-12-19T03:31:53;9.00;;;5.07;;
15110;SDS011;7656;51.954;7.998;2022-12-19T03:36:18;15.27;;;8.23;;
15110;SDS011;7656;51.954;7.998;2022-12-19T03:40:43;12.10;;;7.70;;
15110;SDS011;7656;51.954;7.998;2022-12-19T03:45:06;13.20;;;7.07;;
15110;SDS011;7656;51.954;7.998;2022-12-19T03:49:28;14.33;;;7.80;;
15110;SDS011;7656;51.954;7.998;2022-12-19T03:58:27;16.43;;;7.00;;
15110;SDS011;7656;51.954;7.998;2022-12-19T04:02:54;13.63;;;8.20;;
15110;SDS011;7656;51.954;7.998;2022-12-19T04:07:17;13.87;;;7.93;;
15110;SDS011;7656;51.954;7.998;2022-12-19T04:11:44;15.80;;;9.03;;
15110;SDS011;7656;51.954;7.998;2022-12-19T04:16:15;14.43;;;8.90;;
15110;SDS011;7656;51.954;7.998;2022-12-19T04:21:12;21.20;;;10.27;;
15110;SDS011;7656;51.954;7.998;2022-12-19T04:25:42;16.57;;;8.47;;
15110;SDS011;7656;51.954;7.998;2022-12-19T04:30:11;13.37;;;8.03;;
15110;SDS011;7656;51.954;7.998;2022-12-19T04:34:35;15.87;;;9.47;;
15110;SDS011;7656;51.954;7.998;2022-12-19T04:38:56;14.70;;;8.50;;
15110;SDS011;7656;51.954;7.998;2022-12-19T04:43:17;16.00;;;9.17;;
15110;SDS011;7656;51.954;7.998;2022-12-19T04:47:38;17.67;;;8.00;;
15110;SDS011;7656;51.954;7.998;2022-12-19T04:51:59;19.27;;;8.73;;
15110;SDS011;7656;51.954;7.998;2022-12-19T04:56:21;17.50;;;9.13;;
15110;SDS011;7656;51.954;7.998;2022-12-19T05:00:42;17.93;;;9.30;;
15110;SDS011;7656;51.954;7.998;2022-12-19T05:05:03;13.80;;;8.00;;
15110;SDS011;7656;51.954;7.998;2022-12-19T05:09:24;22.90;;;9.93;;
15110;SDS011;7656;51.954;7.998;2022-12-19T05:13:45;18.77;;;9.07;;
15110;SDS011;7656;51.954;7.998;2022-12-19T05:18:09;13.47;;;7.07;;
15110;SDS011;7656;51.954;7.998;2022-12-19T05:22:30;12.87;;;7.63;;
15110;SDS011;7656;51.954;7.998;2022-12-19T05:26:51;17.60;;;9.43;;
15110;SDS011;7656;51.954;7.998;2022-12-19T05:31:13;15.07;;;8.10;;
15110;SDS011;7656;51.954;7.998;2022-12-19T05:35:37;14.50;;;8.67;;
15110;SDS011;7656;51.954;7.998;2022-12-19T05:43:10;11.43;;;7.43;;
15110;SDS011;7656;51.954;7.998;2022-12-19T05:47:31;12.93;;;7.17;;
15110;SDS011;7656;51.954;7.998;2022-12-19T05:51:52;12.00;;;7.30;;
15110;SDS011;7656;51.954;7.998;2022-12-19T05:56:15;12.77;;;7.40;;
15110;SDS011;7656;51.954;7.998;2022-12-19T06:00:38;14.10;;;8.10;;
15110;SDS011;7656;51.954;7.998;2022-12-19T06:04:59;14.50;;;8.00;;
15110;SDS011;7656;51.954;7.998;2022-12-19T06:09:21;15.43;;;9.07;;
15110;SDS011;7656;51.954;7.998;2022-12-19T06:13:42;12.90;;;7.47;;
15110;SDS011;7656;51.954;7.998;2022-12-19T06:18:03;20.40;;;9.80;;
15110;SDS011;7656;51.954;7.998;2022-12-19T06:22:24;16.17;;;9.27;;
15110;SDS011;7656;51.954;7.998;2022-12-19T06:26:45;15.77;;;9.93;;
15110;SDS011;7656;51.954;7.998;2022-12-19T06:31:06;14.90;;;9.03;;
15110;SDS011;7656;51.954;7.998;2022-12-19T06:35:27;16.23;;;8.90;;
15110;SDS011;7656;51.954;7.998;2022-12-19T06:39:49;18.17;;;8.50;;
15110;SDS011;7656;51.954;7.998;2022-12-19T06:44:11;20.83;;;8.67;;
15110;SDS011;7656;51.954;7.998;2022-12-19T06:48:34;15.80;;;9.77;;
15110;SDS011;7656;51.954;7.998;2022-12-19T06:52:55;16.53;;;8.23;;
15110;SDS011;7656;51.954;7.998;2022-12-19T06:57:16;15.60;;;9.33;;
15110;SDS011;7656;51.954;7.998;2022-12-19T07:06:27;14.63;;;9.17;;
15110;SDS011;7656;51.954;7.998;2022-12-19T07:10:48;16.60;;;9.53;;
15110;SDS011;7656;51.954;7.998;2022-12-19T07:15:09;17.67;;;8.47;;
15110;SDS011;7656;51.954;7.998;2022-12-19T07:19:31;15.47;;;9.27;;
15110;SDS011;7656;51.954;7.998;2022-12-19T07:23:54;13.03;;;7.43;;
15110;SDS011;7656;51.954;7.998;2022-12-19T07:28:15;12.97;;;8.10;;
15110;SDS011;7656;51.954;7.998;2022-12-19T07:32:36;13.40;;;7.10;;
15110;SDS011;7656;51.954;7.998;2022-12-19T07:36:58;15.23;;;7.63;;
15110;SDS011;7656;51.954;7.998;2022-12-19T07:41:19;14.57;;;7.80;;
15110;SDS011;7656;51.954;7.998;2022-12-19T07:45:40;16.13;;;9.47;;
15110;SDS011;7656;51.954;7.998;2022-12-19T07:50:02;12.73;;;7.70;;
15110;SDS011;7656;51.954;7.998;2022-12-19T07:54:24;11.27;;;7.10;;
15110;SDS011;7656;51.954;7.998;2022-12-19T07:58:45;14.80;;;8.17;;
15110;SDS011;7656;51.954;7.998;2022-12-19T08:03:06;9.70;;;6.77;;
15110;SDS011;7656;51.954;7.998;2022-12-19T08:07:27;11.60;;;7.50;;
15110;SDS011;7656;51.954;7.998;2022-12-19T08:11:48;11.87;;;7.30;;
15110;SDS011;7656;51.954;7.998;2022-12-19T08:16:09;8.37;;;5.70;;
15110;SDS011;7656;51.954;7.998;2022-12-19T08:20:30;10.10;;;6.77;;
15110;SDS011;7656;51.954;7.998;2022-12-19T08:24:52;11.13;;;7.23;;
15110;SDS011;7656;51.954;7.998;2022-12-19T08:29:13;12.33;;;7.40;;
15110;SDS011;7656;51.954;7.998;2022-12-19T08:33:34;8.70;;;6.33;;
15110;SDS011;7656;51.954;7.998;2022-12-19T08:37:56;9.43;;;6.17;;
15110;SDS011;7656;51.954;7.998;2022-12-19T08:42:17;8.17;;;6.27;;
15110;SDS011;7656;51.954;7.998;2022-12-19T08:46:38;9.33;;;6.40;;
15110;SDS011;7656;51.954;7.998;2022-12-19T08:51:00;9.90;;;6.53;;
15110;SDS011;7656;51.954;7.998;2022-12-19T08:55:24;6.97;;;5.03;;
15110;SDS011;7656;51.954;7.998;2022-12-19T08:59:45;8.83;;;6.40;;
15110;SDS011;7656;51.954;7.998;2022-12-19T09:04:06;8.20;;;5.90;;
15110;SDS011;7656;51.954;7.998;2022-12-19T09:08:27;8.63;;;5.90;;
15110;SDS011;7656;51.954;7.998;2022-12-19T09:12:49;10.07;;;5.70;;
15110;SDS011;7656;51.954;7.998;2022-12-19T09:17:10;9.63;;;5.33;;
15110;SDS011;7656;51.954;7.998;2022-12-19T09:21:31;7.27;;;5.23;;
15110;SDS011;7656;51.954;7.998;2022-12-19T09:25:53;8.37;;;5.90;;
15110;SDS011;7656;51.954;7.998;2022-12-19T09:30:30;7.30;;;5.27;;
15110;SDS011;7656;51.954;7.998;2022-12-19T09:34:51;8.23;;;5.70;;
15110;SDS011;7656;51.954;7.998;2022-12-19T09:39:12;9.80;;;6.30;;
15110;SDS011;7656;51.954;7.998;2022-12-19T09:48:52;9.80;;;5.77;;
15110;SDS011;7656;51.954;7.998;2022-12-19T09:53:26;7.83;;;5.40;;
15110;SDS011;7656;51.954;7.998;2022-12-19T10:03:01;23.67;;;6.57;;
15110;SDS011;7656;51.954;7.998;2022-12-19T10:07:31;12.67;;;6.37;;
15110;SDS011;7656;51.954;7.998;2022-12-19T10:22:10;9.73;;;6.77;;
15110;SDS011;7656;51.954;7.998;2022-12-19T10:26:52;7.03;;;5.57;;
15110;SDS011;7656;51.954;7.998;2022-12-19T10:31:31;9.53;;;6.27;;
15110;SDS011;7656;51.954;7.998;2022-12-19T10:35:59;8.37;;;5.97;;
15110;SDS011;7656;51.954;7.998;2022-12-19T10:40:27;10.20;;;6.33;;
15110;SDS011;7656;51.954;7.998;2022-12-19T10:44:54;9.70;;;5.97;;
15110;SDS011;7656;51.954;7.998;2022-12-19T10:49:20;8.67;;;6.77;;
15110;SDS011;7656;51.954;7.998;2022-12-19T10:53:51;9.07;;;6.43;;
15110;SDS011;7656;51.954;7.998;2022-12-19T10:58:18;8.87;;;6.47;;
15110;SDS011;7656;51.954;7.998;2022-12-19T11:02:46;12.27;;;7.93;;
15110;SDS011;7656;51.954;7.998;2022-12-19T11:07:16;10.73;;;6.73;;
15110;SDS011;7656;51.954;7.998;2022-12-19T11:11:40;10.40;;;7.30;;
15110;SDS011;7656;51.954;7.998;2022-12-19T11:16:02;12.40;;;7.30;;
15110;SDS011;7656;51.954;7.998;2022-12-19T11:20:26;8.77;;;6.43;;
15110;SDS011;7656;51.954;7.998;2022-12-19T11:24:51;10.93;;;7.37;;
15110;SDS011;7656;51.954;7.998;2022-12-19T11:29:25;11.30;;;7.37;;
15110;SDS011;7656;51.954;7.998;2022-12-19T11:34:11;9.73;;;6.53;;
15110;SDS011;7656;51.954;7.998;2022-12-19T11:38:45;11.13;;;7.10;;
15110;SDS011;7656;51.954;7.998;2022-12-19T11:43:14;9.07;;;6.73;;
15110;SDS011;7656;51.954;7.998;2022-12-19T11:47:52;9.23;;;6.63;;
15110;SDS011;7656;51.954;7.998;2022-12-19T11:52:22;11.63;;;7.23;;
15110;SDS011;7656;51.954;7.998;2022-12-19T11:56:57;9.70;;;6.53;;
15110;SDS011;7656;51.954;7.998;2022-12-19T12:01:39;12.83;;;7.80;;
15110;SDS011;7656;51.954;7.998;2022-12-19T12:06:22;9.10;;;6.50;;
15110;SDS011;7656;51.954;7.998;2022-12-19T12:10:54;9.40;;;6.47;;
15110;SDS011;7656;51.954;7.998;2022-12-19T12:15:34;11.00;;;7.20;;
15110;SDS011;7656;51.954;7.998;2022-12-19T12:20:14;9.47;;;6.50;;
15110;SDS011;7656;51.954;7.998;2022-12-19T12:34:43;9.83;;;7.07;;
15110;SDS011;7656;51.954;7.998;2022-12-19T12:44:41;11.57;;;6.50;;
15110;SDS011;7656;51.954;7.998;2022-12-19T12:49:04;9.70;;;6.10;;
15110;SDS011;7656;51.954;7.998;2022-12-19T12:53:43;8.80;;;6.50;;
15110;SDS011;7656;51.954;7.998;2022-12-19T13:03:09;8.63;;;6.20;;
15110;SDS011;7656;51.954;7.998;2022-12-19T13:07:42;9.67;;;7.03;;
15110;SDS011;7656;51.954;7.998;2022-12-19T13:12:18;9.13;;;6.93;;
15110;SDS011;7656;51.954;7.998;2022-12-19T13:17:06;9.43;;;6.33;;
15110;SDS011;7656;51.954;7.998;2022-12-19T13:21:53;9.13;;;6.00;;
15110;SDS011;7656;51.954;7.998;2022-12-19T13:26:44;9.03;;;6.43;;
15110;SDS011;7656;51.954;7.998;2022-12-19T13:35:34;9.13;;;6.00;;
15110;SDS011;7656;51.954;7.998;2022-12-19T13:44:20;7.87;;;5.53;;
15110;SDS011;7656;51.954;7.998;2022-12-19T13:48:52;8.13;;;5.37;;
15110;SDS011;7656;51.954;7.998;2022-12-19T13:53:24;8.60;;;6.27;;
15110;SDS011;7656;51.954;7.998;2022-12-19T13:57:51;9.73;;;6.00;;
15110;SDS011;7656;51.954;7.998;2022-12-19T14:02:16;7.13;;;5.17;;
15110;SDS011;7656;51.954;7.998;2022-12-19T14:06:46;9.17;;;5.13;;
15110;SDS011;7656;51.954;7.998;2022-12-19T14:11:11;8.27;;;5.70;;
15110;SDS011;7656;51.954;7.998;2022-12-19T14:15:38;6.30;;;4.70;;
15110;SDS011;7656;51.954;7.998;2022-12-19T14:20:08;8.97;;;5.13;;
15110;SDS011;7656;51.954;7.998;2022-12-19T14:29:25;6.60;;;4.67;;
15110;SDS011;7656;51.954;7.998;2022-12-19T14:33:51;9.50;;;4.40;;
15110;SDS011;7656;51.954;7.998;2022-12-19T14:38:15;7.83;;;4.50;;
15110;SDS011;7656;51.954;7.998;2022-12-19T14:42:40;4.43;;;3.97;;
15110;SDS011;7656;51.954;7.998;2022-12-19T14:47:21;5.20;;;3.83;;
15110;SDS011;7656;51.954;7.998;2022-12-19T14:51:45;7.77;;;4.83;;
15110;SDS011;7656;51.954;7.998;2022-12-19T14:56:08;5.07;;;4.13;;
15110;SDS011;7656;51.954;7.998;2022-12-19T15:00:41;6.30;;;4.97;;
15110;SDS011;7656;51.954;7.998;2022-12-19T15:05:09;5.47;;;4.87;;
15110;SDS011;7656;51.954;7.998;2022-12-19T15:09:49;10.73;;;4.50;;
15110;SDS011;7656;51.954;7.998;2022-12-19T15:14:24;6.33;;;4.87;;
15110;SDS011;7656;51.954;7.998;2022-12-19T15:19:10;7.03;;;5.47;;
15110;SDS011;7656;51.954;7.998;2022-12-19T15:23:32;6.10;;;5.10;;
15110;SDS011;7656;51.954;7.998;2022-12-19T15:27:53;9.37;;;5.33;;
15110;SDS011;7656;51.954;7.998;2022-12-19T15:32:15;9.80;;;6.23;;
15110;SDS011;7656;51.954;7.998;2022-12-19T15:36:37;6.97;;;5.53;;
15110;SDS011;7656;51.954;7.998;2022-12-19T15:40:58;8.80;;;5.27;;
15110;SDS011;7656;51.954;7.998;2022-12-19T15:45:19;7.20;;;5.07;;
15110;SDS011;7656;51.954;7.998;2022-12-19T15:49:40;6.80;;;4.93;;
15110;SDS011;7656;51.954;7.998;2022-12-19T15:54:01;6.57;;;4.63;;
15110;SDS011;7656;51.954;7.998;2022-12-19T15:58:22;10.20;;;4.90;;
15110;SDS011;7656;51.954;7.998;2022-12-19T16:02:46;6.73;;;5.00;;
15110;SDS011;7656;51.954;7.998;2022-12-19T16:07:11;7.50;;;4.73;;
15110;SDS011;7656;51.954;7.998;2022-12-19T16:11:38;7.00;;;4.83;;
15110;SDS011;7656;51.954;7.998;2022-12-19T16:15:59;6.10;;;5.07;;
15110;SDS011;7656;51.954;7.998;2022-12-19T16:20:25;8.60;;;5.67;;
15110;SDS011;7656;51.954;7.998;2022-12-19T16:24:50;6.67;;;5.00;;
15110;SDS011;7656;51.954;7.998;2022-12-19T16:29:23;9.20;;;5.20;;
15110;SDS011;7656;51.954;7.998;2022-12-19T16:33:47;7.83;;;5.20;;
15110;SDS011;7656;51.954;7.998;2022-12-19T16:38:08;8.47;;;6.03;;
15110;SDS011;7656;51.954;7.998;2022-12-19T16:42:29;6.07;;;4.67;;
15110;SDS011;7656;51.954;7.998;2022-12-19T16:46:52;5.43;;;4.43;;
15110;SDS011;7656;51.954;7.998;2022-12-19T16:51:20;5.77;;;4.70;;
15110;SDS011;7656;51.954;7.998;2022-12-19T16:55:44;8.30;;;4.97;;
15110;SDS011;7656;51.954;7.998;2022-12-19T17:00:10;6.57;;;5.03;;
15110;SDS011;7656;51.954;7.998;2022-12-19T17:04:36;7.20;;;4.77;;
15110;SDS011;7656;51.954;7.998;2022-12-19T17:08:57;6.27;;;5.10;;
15110;SDS011;7656;51.954;7.998;2022-12-19T17:13:18;5.73;;;4.80;;
15110;SDS011;7656;51.954;7.998;2022-12-19T17:17:41;7.07;;;5.57;;
15110;SDS011;7656;51.954;7.998;2022-12-19T17:22:02;7.90;;;5.57;;
15110;SDS011;7656;51.954;7.998;2022-12-19T17:26:31;8.27;;;4.87;;
15110;SDS011;7656;51.954;7.998;2022-12-19T17:30:53;9.13;;;5.73;;
15110;SDS011;7656;51.954;7.998;2022-12-19T17:35:19;9.93;;;5.43;;
15110;SDS011;7656;51.954;7.998;2022-12-19T17:39:43;7.90;;;4.97;;
15110;SDS011;7656;51.954;7.998;2022-12-19T17:44:04;7.37;;;5.63;;
15110;SDS011;7656;51.954;7.998;2022-12-19T17:48:26;7.53;;;5.63;;
15110;SDS011;7656;51.954;7.998;2022-12-19T17:52:52;8.87;;;5.47;;
15110;SDS011;7656;51.954;7.998;2022-12-19T17:57:15;6.70;;;5.07;;
15110;SDS011;7656;51.954;7.998;2022-12-19T18:01:37;8.00;;;5.43;;
15110;SDS011;7656;51.954;7.998;2022-12-19T18:06:01;7.57;;;5.40;;
15110;SDS011;7656;51.954;7.998;2022-12-19T18:10:23;7.50;;;5.20;;
15110;SDS011;7656;51.954;7.998;2022-12-19T18:14:49;6.17;;;5.43;;
15110;SDS011;7656;51.954;7.998;2022-12-19T18:19:17;7.13;;;5.07;;
15110;SDS011;7656;51.954;7.998;2022-12-19T18:23:40;7.40;;;5.30;;
15110;SDS011;7656;51.954;7.998;2022-12-19T18:28:02;6.07;;;4.40;;
15110;SDS011;7656;51.954;7.998;2022-12-19T18:32:23;7.40;;;4.97;;
15110;SDS011;7656;51.954;7.998;2022-12-19T18:36:44;7.93;;;5.07;;
15110;SDS011;7656;51.954;7.998;2022-12-19T18:41:07;5.33;;;4.67;;
15110;SDS011;7656;51.954;7.998;2022-12-19T18:45:35;5.20;;;4.50;;
15110;SDS011;7656;51.954;7.998;2022-12-19T18:49:59;9.37;;;5.37;;
15110;SDS011;7656;51.954;7.998;2022-12-19T18:54:20;5.33;;;4.60;;
15110;SDS011;7656;51.954;7.998;2022-12-19T18:58:41;7.93;;;4.37;;
15110;SDS011;7656;51.954;7.998;2022-12-19T19:03:04;6.50;;;4.07;;
15110;SDS011;7656;51.954;7.998;2022-12-19T19:07:32;5.47;;;4.73;;
15110;SDS011;7656;51.954;7.998;2022-12-19T19:11:53;5.17;;;4.47;;
15110;SDS011;7656;51.954;7.998;2022-12-19T19:16:19;6.43;;;4.67;;
15110;SDS011;7656;51.954;7.998;2022-12-19T19:20:43;7.67;;;4.17;;
15110;SDS011;7656;51.954;7.998;2022-12-19T19:25:06;5.40;;;3.90;;
15110;SDS011;7656;51.954;7.998;2022-12-19T19:29:28;5.70;;;4.10;;
15110;SDS011;7656;51.954;7.998;2022-12-19T19:33:51;5.70;;;3.53;;
15110;SDS011;7656;51.954;7.998;2022-12-19T19:38:20;5.93;;;3.60;;
15110;SDS011;7656;51.954;7.998;2022-12-19T19:42:43;4.77;;;3.60;;
15110;SDS011;7656;51.954;7.998;2022-12-19T19:47:04;4.47;;;3.83;;
15110;SDS011;7656;51.954;7.998;2022-12-19T19:51:25;4.87;;;3.40;;
15110;SDS011;7656;51.954;7.998;2022-12-19T19:55:57;6.33;;;4.20;;
15110;SDS011;7656;51.954;7.998;2022-12-19T20:00:20;5.33;;;3.97;;
15110;SDS011;7656;51.954;7.998;2022-12-19T20:04:42;4.17;;;3.57;;
15110;SDS011;7656;51.954;7.998;2022-12-19T20:09:03;5.33;;;3.60;;
15110;SDS011;7656;51.954;7.998;2022-12-19T20:13:24;5.63;;;3.63;;
15110;SDS011;7656;51.954;7.998;2022-12-19T20:17:48;4.90;;;3.77;;
15110;SDS011;7656;51.954;7.998;2022-12-19T20:22:11;5.57;;;4.63;;
15110;SDS011;7656;51.954;7.998;2022-12-19T20:26:32;4.03;;;3.63;;
15110;SDS011;7656;51.954;7.998;2022-12-19T20:30:55;4.37;;;3.97;;
15110;SDS011;7656;51.954;7.998;2022-12-19T20:35:16;4.10;;;3.70;;
15110;SDS011;7656;51.954;7.998;2022-12-19T20:39:37;5.00;;;3.50;;
15110;SDS011;7656;51.954;7.998;2022-12-19T20:43:59;7.50;;;3.40;;
15110;SDS011;7656;51.954;7.998;2022-12-19T20:48:20;5.10;;;3.93;;
15110;SDS011;7656;51.954;7.998;2022-12-19T20:52:41;11.63;;;4.60;;
15110;SDS011;7656;51.954;7.998;2022-12-19T20:57:02;6.30;;;4.27;;
15110;SDS011;7656;51.954;7.998;2022-12-19T21:01:23;3.93;;;3.57;;
15110;SDS011;7656;51.954;7.998;2022-12-19T21:05:50;4.27;;;3.43;;
15110;SDS011;7656;51.954;7.998;2022-12-19T21:10:15;4.53;;;3.93;;
15110;SDS011;7656;51.954;7.998;2022-12-19T21:14:36;3.87;;;3.33;;
15110;SDS011;7656;51.954;7.998;2022-12-19T21:18:57;5.20;;;3.50;;
15110;SDS011;7656;51.954;7.998;2022-12-19T21:23:18;3.70;;;3.20;;
15110;SDS011;7656;51.954;7.998;2022-12-19T21:27:40;5.00;;;3.50;;
15110;SDS011;7656;51.954;7.998;2022-12-19T21:32:02;5.70;;;3.53;;
15110;SDS011;7656;51.954;7.998;2022-12-19T21:36:23;7.77;;;4.33;;
15110;SDS011;7656;51.954;7.998;2022-12-19T21:40:45;6.20;;;3.77;;
15110;SDS011;7656;51.954;7.998;2022-12-19T21:45:07;4.40;;;3.40;;
15110;SDS011;7656;51.954;7.998;2022-12-19T21:49:30;5.53;;;3.03;;
15110;SDS011;7656;51.954;7.998;2022-12-19T21:53:52;5.37;;;3.53;;
15110;SDS011;7656;51.954;7.998;2022-12-19T21:58:17;4.50;;;3.30;;
15110;SDS011;7656;51.954;7.998;2022-12-19T22:02:38;4.90;;;2.97;;
15110;SDS011;7656;51.954;7.998;2022-12-19T22:06:59;3.80;;;3.00;;
15110;SDS011;7656;51.954;7.998;2022-12-19T22:11:23;6.33;;;3.23;;
15110;SDS011;7656;51.954;7.998;2022-12-19T22:15:45;4.17;;;3.03;;
15110;SDS011;7656;51.954;7.998;2022-12-19T22:20:07;2.80;;;2.50;;
15110;SDS011;7656;51.954;7.998;2022-12-19T22:24:28;3.10;;;2.67;;
15110;SDS011;7656;51.954;7.998;2022-12-19T22:28:51;3.93;;;3.10;;
15110;SDS011;7656;51.954;7.998;2022-12-19T22:33:13;3.13;;;2.70;;
15110;SDS011;7656;51.954;7.998;2022-12-19T22:37:34;4.10;;;3.00;;
15110;SDS011;7656;51.954;7.998;2022-12-19T22:41:55;3.20;;;2.87;;
15110;SDS011;7656;51.954;7.998;2022-12-19T22:46:18;4.63;;;3.10;;
15110;SDS011;7656;51.954;7.998;2022-12-19T22:50:45;9.53;;;3.10;;
15110;SDS011;7656;51.954;7.998;2022-12-19T22:55:06;3.00;;;2.73;;
15110;SDS011;7656;51.954;7.998;2022-12-19T22:59:28;3.80;;;3.00;;
15110;SDS011;7656;51.954;7.998;2022-12-19T23:03:50;3.47;;;2.97;;
15110;SDS011;7656;51.954;7.998;2022-12-19T23:08:13;3.70;;;3.13;;
15110;SDS011;7656;51.954;7.998;2022-12-19T23:12:34;3.37;;;2.40;;
15110;SDS011;7656;51.954;7.998;2022-12-19T23:16:56;2.70;;;2.50;;
15110;SDS011;7656;51.954;7.998;2022-12-19T23:21:18;3.10;;;2.67;;
15110;SDS011;7656;51.954;7.998;2022-12-19T23:25:41;5.07;;;2.70;;
15110;SDS011;7656;51.954;7.998;2022-12-19T23:30:03;3.87;;;2.93;;
15110;SDS011;7656;51.954;7.998;2022-12-19T23:34:25;5.63;;;2.93;;
15110;SDS011;7656;51.954;7.998;2022-12-19T23:38:46;2.90;;;2.47;;
15110;SDS011;7656;51.954;7.998;2022-12-19T23:43:08;2.70;;;2.50;;
15110;SDS011;7656;51.954;7.998;2022-12-19T23:47:29;3.00;;;2.70;;
15110;SDS011;7656;51.954;7.998;2022-12-19T23:51:51;2.63;;;2.40;;
